Quinton, Virginia
Current Conditions -  °F | °C
As of 2:35 AM on Wednesday 22 Oct 2014 (Local Time) from KW96 Reporting Station
Broken Clouds Broken Clouds  
Wind Chill: 52°   Ceiling: 12000
Heat Index: 52°   Visibility: 10mi
Dew Point: 49°   Wind: 7mph
Humidity: 89%   Direction: 300°WNW
Pressure: 29.87"   Gusts: NA
Location:  37.53°N, 77.12°W
Report Text: KW96 220635Z AUTO 30006KT 10SM SCT023 SCT050 BKN120 11/10 A2987 RMK AO1 T01120095
Loading
Personal Weather Stations






























Interactive Weather Map
Tropical Storm Tracking
New forecast layout! Learn more

10-Day Weather Forecast

Advertisements
Track Severe Weather on mobile